Time;durP1;ratioP1;P1;durP2;ratioP2;P2;SDS_P1;SDS_P2;PMS_P1;PMS_P2;Temp;Humidity;BMP_temperature;BMP_pressure;BME280_temperature;BME280_humidity;BME280_pressure;Samples;Min_cycle;Max_cycle;Signal;HPM_P1;HPM_P2
2020/12/31 00:02:30;;;;;;;9.27;6.05;;;;;;;2.46;86.92;98414.94;2012473;78;30776;-80
2020/12/31 00:05:31;;;;;;;10.50;6.35;;;;;;;2.40;86.76;98405.47;2012329;80;20474;-80
2020/12/31 00:08:33;;;;;;;13.48;5.91;;;;;;;2.34;86.72;98405.41;2015528;80;20339;-82
2020/12/31 00:11:35;;;;;;;7.80;5.75;;;;;;;2.34;86.65;98402.84;2013008;80;20327;-81
2020/12/31 00:14:36;;;;;;;7.68;5.88;;;;;;;2.29;86.41;98401.06;2013433;80;20323;-81
2020/12/31 00:17:38;;;;;;;7.00;5.80;;;;;;;2.22;86.40;98389.88;2013553;78;23531;-81
2020/12/31 00:20:39;;;;;;;6.55;5.46;;;;;;;2.24;86.57;98395.03;2015737;80;20367;-81
2020/12/31 00:23:41;;;;;;;6.97;5.72;;;;;;;2.19;86.51;98391.56;2015282;80;20352;-81
2020/12/31 00:26:43;;;;;;;8.11;5.71;;;;;;;2.20;86.68;98388.16;2016031;80;20339;-81
2020/12/31 00:29:45;;;;;;;8.56;5.89;;;;;;;2.21;86.69;98382.19;2014251;80;20474;-82
2020/12/31 00:36:07;;;;;;;8.51;5.94;;;;;;;2.22;86.75;98383.91;2005451;70;20483;-74
2020/12/31 00:39:09;;;;;;;7.79;5.74;;;;;;;2.23;86.91;98371.13;1993431;81;20473;-74
2020/12/31 00:42:11;;;;;;;10.21;5.79;;;;;;;2.20;86.93;98368.53;1994019;81;20403;-73
2020/12/31 00:45:12;;;;;;;6.34;5.29;;;;;;;2.20;87.08;98367.66;1997366;78;20332;-74
2020/12/31 00:48:14;;;;;;;7.22;5.31;;;;;;;2.18;87.04;98367.66;2003343;80;20335;-73
2020/12/31 00:51:16;;;;;;;7.89;4.82;;;;;;;2.19;86.91;98365.94;2007326;80;20342;-73
2020/12/31 00:54:17;;;;;;;6.29;4.96;;;;;;;2.16;86.60;98366.78;2004316;80;20826;-74
2020/12/31 00:57:19;;;;;;;6.82;4.85;;;;;;;2.15;86.48;98369.28;2004321;80;20357;-73
2020/12/31 01:00:21;;;;;;;6.32;5.34;;;;;;;2.13;86.30;98366.72;2002884;80;24717;-74
2020/12/31 01:03:22;;;;;;;7.10;5.18;;;;;;;2.11;86.32;98360.72;2003360;80;20846;-74
2020/12/31 01:06:24;;;;;;;5.84;4.20;;;;;;;2.11;86.29;98361.56;2003123;80;20327;-73
2020/12/31 01:09:25;;;;;;;4.54;3.96;;;;;;;2.11;86.02;98360.72;2002595;80;21121;-74
2020/12/31 01:12:29;;;;;;;6.36;4.74;;;;;;;2.07;85.77;98351.28;2002419;80;20476;-74
2020/12/31 01:15:31;;;;;;;5.54;4.21;;;;;;;2.09;85.84;98347.03;2004558;78;23507;-74
2020/12/31 01:18:35;;;;;;;7.19;5.04;;;;;;;2.10;86.00;98352.19;1998661;81;21363;-74
2020/12/31 01:21:37;;;;;;;5.94;4.30;;;;;;;2.09;85.98;98347.91;1999555;81;20352;-73
2020/12/31 01:24:39;;;;;;;5.84;4.10;;;;;;;2.15;86.13;98354.78;1998186;81;20881;-74
2020/12/31 01:27:40;;;;;;;6.68;4.82;;;;;;;2.16;85.93;98348.00;1999039;81;21025;-73
2020/12/31 01:30:42;;;;;;;4.43;3.54;;;;;;;2.16;85.83;98337.75;1998231;79;24198;-74
2020/12/31 01:33:44;;;;;;;5.16;4.10;;;;;;;2.18;85.93;98338.63;2004141;80;20366;-74
2020/12/31 01:36:45;;;;;;;5.40;3.79;;;;;;;2.16;85.77;98330.94;2004685;80;20360;-73
2020/12/31 01:39:48;;;;;;;4.49;3.88;;;;;;;2.18;86.15;98333.50;2003446;80;20341;-74
2020/12/31 01:42:50;;;;;;;4.88;4.38;;;;;;;2.16;86.09;98319.84;2014239;80;20299;-84
2020/12/31 01:45:51;;;;;;;4.57;3.54;;;;;;;2.18;86.06;98320.72;2024349;78;20427;-84
2020/12/31 01:48:53;;;;;;;4.75;3.67;;;;;;;2.15;85.76;98315.53;2016997;81;20371;-84
2020/12/31 01:51:56;;;;;;;6.74;4.28;;;;;;;2.14;85.76;98312.09;2016777;81;20362;-84
2020/12/31 01:54:59;;;;;;;4.89;3.78;;;;;;;2.12;85.81;98306.97;2016914;80;20369;-83
2020/12/31 01:58:03;;;;;;;3.83;3.38;;;;;;;2.09;85.39;98306.06;2015539;81;20347;-84
2020/12/31 02:01:04;;;;;;;4.50;3.49;;;;;;;2.08;85.34;98312.03;2015231;78;47073;-83
2020/12/31 02:04:06;;;;;;;4.20;3.40;;;;;;;2.08;85.41;98319.72;2021471;81;20292;-84
2020/12/31 02:07:07;;;;;;;3.96;3.06;;;;;;;2.10;85.09;98315.47;2016848;81;20321;-85
2020/12/31 02:10:10;;;;;;;4.75;3.70;;;;;;;2.09;85.14;98306.94;2014688;81;20338;-83
2020/12/31 02:13:11;;;;;;;4.70;3.96;;;;;;;2.11;85.51;98310.38;2019799;81;20380;-83
2020/12/31 02:19:40;;;;;;;3.56;3.08;;;;;;;2.16;85.68;98296.78;2028901;70;20353;-88
2020/12/31 02:22:43;;;;;;;3.66;3.26;;;;;;;2.19;85.70;98296.81;2012603;81;20337;-84
2020/12/31 02:25:45;;;;;;;4.28;3.05;;;;;;;2.18;85.74;98298.53;2012196;81;20151;-84
2020/12/31 02:28:50;;;;;;;5.44;3.54;;;;;;;2.13;85.72;98293.31;2015693;81;20320;-82
2020/12/31 02:31:53;;;;;;;4.01;3.40;;;;;;;2.11;85.54;98289.03;2000663;81;950967;-84
2020/12/31 02:34:56;;;;;;;5.28;3.61;;;;;;;2.10;85.08;98275.38;2013255;81;20209;-84
2020/12/31 02:38:00;;;;;;;5.53;4.06;;;;;;;2.12;84.98;98277.94;2011362;81;20314;-84
2020/12/31 02:41:02;;;;;;;3.79;3.33;;;;;;;2.12;85.22;98277.94;2015539;81;20310;-85
2020/12/31 02:44:05;;;;;;;4.91;3.45;;;;;;;2.12;85.25;98267.69;2010816;81;20376;-84
2020/12/31 02:47:07;;;;;;;5.19;3.72;;;;;;;2.13;85.41;98269.41;2013078;78;174749;-85
2020/12/31 02:50:13;;;;;;;3.67;3.31;;;;;;;2.10;85.21;98264.28;2015975;81;20247;-84
2020/12/31 02:53:26;;;;;;;4.09;3.69;;;;;;;2.07;85.34;98262.53;2023638;71;20369;-82
2020/12/31 02:56:28;;;;;;;4.44;3.30;;;;;;;2.05;85.35;98264.22;2011206;81;20228;-83
2020/12/31 02:59:33;;;;;;;5.20;3.99;;;;;;;2.08;85.36;98265.97;2011542;81;20351;-83
2020/12/31 03:02:40;;;;;;;6.10;3.64;;;;;;;2.07;85.29;98264.25;2007065;78;193832;-72
2020/12/31 03:05:42;;;;;;;4.93;3.66;;;;;;;2.03;84.83;98245.44;1989448;81;20896;-73
2020/12/31 03:08:44;;;;;;;5.84;4.63;;;;;;;2.04;84.87;98248.84;1989812;81;20487;-72
2020/12/31 03:11:46;;;;;;;6.01;4.31;;;;;;;1.95;84.44;98246.19;1989698;81;20356;-72
2020/12/31 03:14:48;;;;;;;5.74;3.63;;;;;;;1.94;84.67;98244.47;1990205;81;20330;-72
2020/12/31 03:17:50;;;;;;;5.81;4.13;;;;;;;1.96;85.11;98247.91;1989212;80;23697;-72
2020/12/31 03:20:52;;;;;;;5.38;3.88;;;;;;;1.98;85.26;98249.66;1989890;81;21038;-72
2020/12/31 03:23:53;;;;;;;4.09;3.71;;;;;;;1.97;85.19;98245.34;1989293;81;20338;-72
2020/12/31 03:26:55;;;;;;;4.81;4.18;;;;;;;1.97;85.32;98245.34;1989509;81;20399;-73
2020/12/31 03:29:56;;;;;;;4.03;3.53;;;;;;;1.90;84.92;98238.47;1993003;81;20753;-72
2020/12/31 03:32:59;;;;;;;4.63;3.80;;;;;;;1.90;85.13;98237.59;1989103;78;22361;-72
2020/12/31 03:36:00;;;;;;;4.56;3.46;;;;;;;1.84;85.33;98233.28;1989298;81;20657;-72
2020/12/31 03:39:03;;;;;;;4.24;3.75;;;;;;;1.83;85.35;98234.13;1989822;81;20360;-72
2020/12/31 03:42:05;;;;;;;4.90;3.42;;;;;;;1.84;85.43;98215.38;1989838;81;20319;-72
2020/12/31 03:45:06;;;;;;;3.60;3.21;;;;;;;1.84;85.43;98219.63;1988930;81;20350;-72
2020/12/31 03:48:09;;;;;;;3.74;3.41;;;;;;;1.81;85.36;98212.78;1989923;79;26661;-72
2020/12/31 03:51:11;;;;;;;4.32;3.60;;;;;;;1.83;85.34;98212.78;1989394;81;20383;-72
2020/12/31 03:54:12;;;;;;;4.28;3.84;;;;;;;1.85;85.49;98211.09;1989759;81;21002;-72
2020/12/31 03:57:14;;;;;;;4.51;3.31;;;;;;;1.84;85.04;98196.59;1989490;81;20342;-72
2020/12/31 04:00:15;;;;;;;4.09;3.69;;;;;;;1.86;85.11;98190.66;1988045;78;28881;-72
2020/12/31 04:03:17;;;;;;;3.92;3.34;;;;;;;1.84;84.83;98183.81;1989268;81;20331;-72
2020/12/31 04:06:18;;;;;;;3.99;3.51;;;;;;;1.80;84.64;98185.47;1988909;81;20845;-72
2020/12/31 04:09:20;;;;;;;3.45;3.09;;;;;;;1.80;84.89;98183.78;1988985;81;20362;-72
2020/12/31 04:12:22;;;;;;;4.56;3.79;;;;;;;1.83;84.92;98172.69;1988064;81;20342;-72
2020/12/31 04:15:23;;;;;;;4.01;3.49;;;;;;;1.79;84.90;98170.94;1987634;79;32128;-72
2020/12/31 04:18:25;;;;;;;4.09;3.53;;;;;;;1.78;84.99;98170.06;1987910;81;21078;-72
2020/12/31 04:21:26;;;;;;;3.42;3.13;;;;;;;1.79;85.11;98174.34;1988151;81;20330;-72
2020/12/31 04:24:28;;;;;;;3.61;3.20;;;;;;;1.83;85.22;98174.41;1988070;81;20331;-72
2020/12/31 04:27:30;;;;;;;3.33;3.03;;;;;;;1.84;85.33;98171.00;1988268;81;20370;-72
2020/12/31 04:30:32;;;;;;;4.10;3.20;;;;;;;1.85;85.31;98165.03;1987432;79;23919;-72
2020/12/31 04:33:34;;;;;;;2.83;2.61;;;;;;;1.85;85.48;98165.91;1988393;81;20338;-72
2020/12/31 04:36:36;;;;;;;3.64;3.34;;;;;;;1.85;85.27;98170.16;1988277;81;20364;-72
2020/12/31 04:39:37;;;;;;;3.22;2.72;;;;;;;1.85;85.44;98165.03;1988954;81;20342;-72
2020/12/31 04:42:39;;;;;;;4.84;2.58;;;;;;;1.83;85.14;98162.47;1988384;81;20386;-72
2020/12/31 04:45:43;;;;;;;3.42;2.94;;;;;;;1.78;85.26;98164.09;1986961;78;21433;-72
2020/12/31 04:48:53;;;;;;;4.26;3.14;;;;;;;1.80;85.58;98155.63;1987998;81;20376;-73
2020/12/31 04:51:56;;;;;;;5.14;3.50;;;;;;;1.81;85.70;98143.69;1988800;81;20331;-73
2020/12/31 04:55:00;;;;;;;3.53;2.90;;;;;;;1.79;85.82;98137.66;1988335;81;20788;-73
2020/12/31 04:58:02;;;;;;;3.08;2.61;;;;;;;1.79;86.00;98137.66;1988292;81;20342;-74
2020/12/31 05:01:04;;;;;;;3.69;2.94;;;;;;;1.74;86.14;98131.66;1987686;78;20578;-73
2020/12/31 05:04:05;;;;;;;5.24;3.30;;;;;;;1.74;86.43;98129.09;1988260;81;20322;-74
2020/12/31 05:07:07;;;;;;;3.25;2.95;;;;;;;1.69;86.47;98133.31;1988371;81;20356;-73
2020/12/31 05:10:10;;;;;;;5.15;3.30;;;;;;;1.72;86.61;98135.91;1988371;81;20749;-74
2020/12/31 05:13:11;;;;;;;3.83;2.81;;;;;;;1.70;86.69;98128.22;1988554;81;20817;-74
2020/12/31 05:16:13;;;;;;;3.95;3.19;;;;;;;1.68;86.79;98124.78;1986950;79;21601;-74
2020/12/31 05:19:22;;;;;;;3.28;2.63;;;;;;;1.70;87.13;98120.53;1988142;81;20334;-73
2020/12/31 05:22:24;;;;;;;;;;;;;;;1.69;87.10;98108.59;1988743;81;20322;-73
2020/12/31 05:25:35;;;;;;;2.50;2.30;;;;;;;1.67;87.03;98120.50;1988910;81;20086;-73
2020/12/31 05:28:40;;;;;;;3.84;2.81;;;;;;;1.68;87.25;98117.09;1989004;81;20195;-73
2020/12/31 05:31:55;;;;;;;4.49;3.14;;;;;;;1.66;87.47;98116.25;1989442;78;44696;-73
2020/12/31 05:34:57;;;;;;;3.81;3.51;;;;;;;1.65;87.61;98114.53;1988989;81;20471;-74
2020/12/31 05:38:00;;;;;;;4.35;2.63;;;;;;;1.60;87.65;98111.03;1989497;81;20824;-74
2020/12/31 05:41:02;;;;;;;3.01;2.65;;;;;;;1.61;87.97;98107.63;1989981;81;20829;-76
2020/12/31 05:44:07;;;;;;;3.35;2.94;;;;;;;1.61;87.83;98111.91;1990054;81;20561;-73
2020/12/31 05:47:09;;;;;;;2.86;2.66;;;;;;;1.61;87.96;98105.06;1990120;79;43091;-74
2020/12/31 05:50:25;;;;;;;2.36;2.04;;;;;;;1.57;87.91;98092.25;1990395;81;20355;-73
2020/12/31 05:53:28;;;;;;;2.91;2.51;;;;;;;1.51;87.88;98086.25;1989775;81;20326;-73
2020/12/31 05:56:31;;;;;;;4.28;2.89;;;;;;;1.51;88.09;98093.91;1989810;81;20244;-74
2020/12/31 05:59:37;;;;;;;3.52;2.79;;;;;;;1.53;88.30;98088.81;1989631;81;20802;-75
2020/12/31 06:02:45;;;;;;;3.42;3.13;;;;;;;1.57;88.36;98087.13;1991775;81;26660;-74
2020/12/31 06:06:03;;;;;;;2.70;2.50;;;;;;;1.59;88.23;98080.31;1989506;81;20348;-74
2020/12/31 06:09:16;;;;;;;2.79;2.59;;;;;;;1.60;88.27;98082.03;1990103;81;20232;-73
2020/12/31 06:12:28;;;;;;;2.75;2.47;;;;;;;1.61;88.23;98094.84;1989421;81;20191;-73
2020/12/31 06:15:35;;;;;;;3.15;2.81;;;;;;;1.62;88.25;98081.25;1988213;79;20435;-74
2020/12/31 06:18:38;;;;;;;2.88;2.58;;;;;;;1.58;88.07;98082.03;1988914;81;20342;-74
2020/12/31 06:21:43;;;;;;;2.96;2.51;;;;;;;1.62;88.30;98078.69;1989689;81;20410;-74
2020/12/31 06:24:45;;;;;;;3.92;3.06;;;;;;;1.59;88.07;98083.75;1990099;81;20408;-74
2020/12/31 06:27:52;;;;;;;3.15;2.91;;;;;;;1.51;88.02;98080.28;1989416;81;20729;-74
2020/12/31 06:30:54;;;;;;;3.74;2.76;;;;;;;1.51;88.27;98082.81;1987799;78;21235;-73
2020/12/31 06:33:56;;;;;;;3.00;2.66;;;;;;;1.49;88.28;98081.94;1989272;81;21013;-73
2020/12/31 06:36:59;;;;;;;2.51;2.31;;;;;;;1.46;88.28;98080.22;1989335;81;20213;-76
2020/12/31 06:40:32;;;;;;;2.71;2.49;;;;;;;1.43;88.17;98077.63;1989667;81;20390;-77
2020/12/31 06:43:38;;;;;;;2.90;2.37;;;;;;;1.41;88.14;98073.31;1988297;81;20819;-75
2020/12/31 06:46:45;;;;;;;2.94;2.13;;;;;;;1.39;88.19;98073.31;1990236;79;25547;-76
2020/12/31 06:49:54;;;;;;;2.46;2.26;;;;;;;1.43;88.22;98071.63;1988438;81;20338;-71
2020/12/31 06:52:55;;;;;;;4.06;2.61;;;;;;;1.40;88.26;98072.47;1989518;81;20672;-71
2020/12/31 06:55:59;;;;;;;2.31;1.86;;;;;;;1.39;88.41;98070.75;1988825;81;20191;-72
2020/12/31 06:59:00;;;;;;;2.22;1.91;;;;;;;1.40;88.41;98074.16;1989575;81;20366;-71
2020/12/31 07:02:14;;;;;;;3.41;2.06;;;;;;;1.37;88.20;98069.88;1987786;79;22011;-72
2020/12/31 07:05:20;;;;;;;5.16;2.41;;;;;;;1.45;88.41;98081.06;1989094;81;21143;-72
2020/12/31 07:08:37;;;;;;;2.45;2.16;;;;;;;1.44;88.36;98076.81;1989439;81;20211;-72
2020/12/31 07:11:40;;;;;;;2.44;2.12;;;;;;;1.41;88.29;98074.19;1989446;81;20713;-74
2020/12/31 07:14:53;;;;;;;2.50;1.58;;;;;;;1.42;88.40;98067.38;1989660;81;20195;-72
2020/12/31 07:17:54;;;;;;;1.99;1.84;;;;;;;1.39;88.41;98070.75;1987905;79;21433;-72
2020/12/31 07:20:56;;;;;;;2.81;1.84;;;;;;;1.41;88.45;98070.78;1988708;81;20338;-73
2020/12/31 07:24:18;;;;;;;2.22;2.00;;;;;;;1.42;88.34;98070.78;1989127;81;20217;-73
2020/12/31 07:27:27;;;;;;;2.63;1.99;;;;;;;1.48;88.21;98075.13;1989015;81;20743;-75
2020/12/31 07:30:28;;;;;;;2.76;1.90;;;;;;;1.47;88.31;98078.53;1988272;78;20642;-73
2020/12/31 07:33:34;;;;;;;2.78;1.90;;;;;;;1.39;88.11;98073.31;1990069;81;20219;-73
2020/12/31 07:36:36;;;;;;;2.89;1.80;;;;;;;1.39;88.33;98072.47;1991458;81;20901;-72
2020/12/31 07:39:37;;;;;;;3.08;1.79;;;;;;;1.37;88.30;98069.88;1990542;81;20398;-73
2020/12/31 07:42:39;;;;;;;3.11;2.33;;;;;;;1.39;88.30;98067.34;1990694;81;20327;-73
2020/12/31 07:45:58;;;;;;;3.25;2.36;;;;;;;1.40;88.34;98077.59;1989529;79;25244;-71
2020/12/31 07:49:00;;;;;;;3.16;2.03;;;;;;;1.41;88.62;98069.06;1990415;81;20356;-76
2020/12/31 07:52:01;;;;;;;2.53;1.94;;;;;;;1.42;88.70;98072.47;1990850;81;20657;-73
2020/12/31 07:55:03;;;;;;;2.33;1.97;;;;;;;1.38;88.37;98068.19;1990171;81;20771;-73
2020/12/31 07:58:08;;;;;;;2.92;2.01;;;;;;;1.41;88.44;98061.41;1990746;81;20343;-73
2020/12/31 08:01:09;;;;;;;3.38;1.92;;;;;;;1.47;88.49;98060.63;1989195;79;21231;-75
2020/12/31 08:04:11;;;;;;;2.19;1.90;;;;;;;1.46;88.36;98059.75;1990052;81;20346;-74
2020/12/31 08:07:17;;;;;;;3.44;1.80;;;;;;;1.48;88.45;98064.91;1991243;81;20869;-74
2020/12/31 08:10:19;;;;;;;3.89;3.28;;;;;;;1.44;88.33;98058.91;1991169;81;20884;-74
2020/12/31 08:13:20;;;;;;;2.42;1.94;;;;;;;1.44;88.48;98060.59;1990076;81;20390;-72
2020/12/31 08:16:22;;;;;;;2.00;1.65;;;;;;;1.49;88.49;98061.50;1986832;78;20842;-71
2020/12/31 08:19:24;;;;;;;2.04;1.89;;;;;;;1.49;88.37;98070.03;1990586;81;20334;-71
2020/12/31 08:22:40;;;;;;;2.31;1.72;;;;;;;1.47;88.28;98069.16;1988937;81;20517;-71
2020/12/31 08:25:43;;;;;;;2.60;2.33;;;;;;;1.44;88.28;98073.38;1987489;81;20341;-71
2020/12/31 08:28:47;;;;;;;1.40;1.30;;;;;;;1.46;88.50;98057.22;1987841;81;20322;-71
2020/12/31 08:31:52;;;;;;;1.67;1.58;;;;;;;1.41;88.21;98052.88;1987596;79;21694;-71
2020/12/31 08:34:56;;;;;;;1.52;1.42;;;;;;;1.37;88.38;98062.22;1988891;81;20825;-71
2020/12/31 08:38:15;;;;;;;1.87;1.47;;;;;;;1.35;88.29;98057.94;1988093;81;20314;-71
2020/12/31 08:41:18;;;;;;;3.00;1.23;;;;;;;1.33;88.34;98052.81;1989071;81;20598;-72
2020/12/31 08:44:24;;;;;;;1.26;1.19;;;;;;;1.31;88.38;98058.75;1988698;81;20833;-71
2020/12/31 08:47:25;;;;;;;1.35;1.25;;;;;;;1.32;88.47;98057.91;1987760;81;22463;-71
2020/12/31 08:50:27;;;;;;;104.25;41.04;;;;;;;1.29;88.45;98056.19;1988643;81;20709;-72
2020/12/31 08:53:30;;;;;;;14.42;8.49;;;;;;;1.26;88.43;98058.72;1989267;81;20343;-70
2020/12/31 08:56:32;;;;;;;8.96;5.00;;;;;;;1.25;88.48;98056.09;1988800;81;20259;-71
2020/12/31 08:59:35;;;;;;;16.48;10.51;;;;;;;1.25;88.57;98051.00;1989186;81;20355;-71
2020/12/31 09:02:37;;;;;;;11.40;9.61;;;;;;;1.27;88.54;98054.44;1989224;79;22305;-71
2020/12/31 09:05:39;;;;;;;16.92;12.15;;;;;;;1.24;88.43;98055.25;1988873;81;20395;-71
2020/12/31 09:08:46;;;;;;;6.00;5.13;;;;;;;1.30;88.68;98054.47;1990004;81;20994;-71
2020/12/31 09:11:53;;;;;;;3.92;3.52;;;;;;;1.29;88.46;98053.63;1989103;81;20336;-70
2020/12/31 09:14:56;;;;;;;2.56;2.36;;;;;;;1.27;88.55;98046.78;1989437;81;20194;-71
2020/12/31 09:17:59;;;;;;;2.45;2.19;;;;;;;1.29;88.79;98051.06;1988977;79;31419;-71
2020/12/31 09:21:02;;;;;;;2.10;1.84;;;;;;;1.33;88.84;98057.06;1989099;81;20348;-71
2020/12/31 09:24:34;;;;;;;2.99;2.59;;;;;;;1.38;88.88;98060.50;1988784;81;20319;-72
2020/12/31 09:27:36;;;;;;;2.04;1.94;;;;;;;1.44;88.90;98056.34;1988479;81;20319;-73
2020/12/31 09:30:38;;;;;;;2.27;1.40;;;;;;;1.44;88.99;98050.38;1988437;79;22646;-73
2020/12/31 09:33:39;;;;;;;2.03;1.61;;;;;;;1.50;89.09;98047.88;1988970;81;20209;-73
2020/12/31 09:36:41;;;;;;;2.92;1.90;;;;;;;1.51;89.10;98050.44;1989282;81;20399;-72
2020/12/31 09:39:43;;;;;;;3.16;2.86;;;;;;;1.59;89.22;98047.94;1989476;81;20911;-73
2020/12/31 09:42:45;;;;;;;3.55;2.84;;;;;;;1.58;88.91;98051.34;1989071;81;20601;-73
2020/12/31 09:45:47;;;;;;;2.30;2.00;;;;;;;1.62;89.00;98047.13;1988773;78;20544;-73
2020/12/31 09:48:50;;;;;;;2.81;2.31;;;;;;;1.63;88.78;98046.28;1988891;81;20350;-72
2020/12/31 09:51:52;;;;;;;1.89;1.76;;;;;;;1.61;88.56;98046.25;1989380;81;20404;-73
2020/12/31 09:54:53;;;;;;;2.19;1.61;;;;;;;1.59;88.50;98041.97;1989325;81;21085;-72
2020/12/31 09:57:56;;;;;;;2.24;1.88;;;;;;;1.60;88.50;98047.09;1988884;81;20352;-75
2020/12/31 10:00:58;;;;;;;1.25;1.17;;;;;;;1.64;88.64;98048.84;1988309;79;22007;-72
2020/12/31 10:04:00;;;;;;;1.46;1.36;;;;;;;1.72;88.81;98046.34;1988813;81;20376;-72
2020/12/31 10:07:02;;;;;;;1.80;1.10;;;;;;;1.72;88.64;98042.09;1989728;81;20318;-72
2020/12/31 10:10:04;;;;;;;0.90;0.90;;;;;;;1.68;88.51;98044.63;1988938;81;20356;-74
2020/12/31 10:13:06;;;;;;;0.90;0.90;;;;;;;1.69;88.64;98044.63;1989683;81;20420;-72
2020/12/31 10:16:08;;;;;;;1.25;0.93;;;;;;;1.71;88.51;98035.25;1988917;79;26973;-72
2020/12/31 10:19:10;;;;;;;2.30;1.30;;;;;;;1.75;88.69;98037.00;1989821;81;20459;-72
2020/12/31 10:22:11;;;;;;;1.17;1.08;;;;;;;1.76;88.74;98037.84;1989331;81;20334;-72
2020/12/31 10:25:13;;;;;;;5.76;4.64;;;;;;;1.78;88.57;98031.03;1988885;81;20326;-72
2020/12/31 10:28:15;;;;;;;16.30;8.73;;;;;;;1.81;88.61;98019.16;1989804;81;20343;-71
2020/12/31 10:31:16;;;;;;;102.51;46.36;;;;;;;1.86;88.72;98019.19;1989037;78;24509;-71
2020/12/31 10:34:19;;;;;;;18.01;11.16;;;;;;;1.90;88.62;98014.94;1989310;81;20356;-71
2020/12/31 10:37:21;;;;;;;4.25;3.83;;;;;;;1.91;88.52;98014.94;1989104;81;20366;-71
2020/12/31 10:40:22;;;;;;;3.21;2.90;;;;;;;1.90;88.41;98012.38;1988030;81;20331;-73
2020/12/31 10:43:24;;;;;;;5.07;3.01;;;;;;;1.88;88.34;98006.41;1987251;81;20367;-71
2020/12/31 10:46:26;;;;;;;2.21;1.89;;;;;;;1.93;88.48;98008.13;1987215;78;21211;-71
2020/12/31 10:49:28;;;;;;;1.42;1.33;;;;;;;2.01;88.54;98003.09;1987317;81;20335;-71
2020/12/31 10:52:30;;;;;;;1.40;1.30;;;;;;;2.09;88.60;98011.66;1987987;81;20356;-71
2020/12/31 10:55:31;;;;;;;1.05;0.98;;;;;;;2.12;88.50;98004.00;1987405;81;20749;-71
2020/12/31 10:58:40;;;;;;;1.96;1.69;;;;;;;2.11;88.25;97997.16;1987004;81;20330;-71
2020/12/31 11:01:42;;;;;;;9.93;8.31;;;;;;;2.12;88.15;97993.75;1989878;79;21528;-80
2020/12/31 11:04:43;;;;;;;30.88;16.31;;;;;;;2.13;88.03;98004.00;1989310;81;20754;-79
2020/12/31 11:07:45;;;;;;;18.89;12.96;;;;;;;2.08;87.88;98000.56;1991298;81;20357;-78
2020/12/31 11:10:48;;;;;;;12.56;8.88;;;;;;;2.07;87.89;97995.44;1990936;81;20352;-78
2020/12/31 11:13:50;;;;;;;3.49;3.19;;;;;;;2.06;87.75;97991.16;1989336;81;21372;-78
2020/12/31 11:16:52;;;;;;;3.84;3.54;;;;;;;2.06;87.56;97986.06;1988804;79;24423;-79
2020/12/31 11:19:54;;;;;;;1.59;1.49;;;;;;;2.10;87.79;97992.91;1991044;81;20394;-81
2020/12/31 11:22:55;;;;;;;2.56;1.54;;;;;;;2.10;87.72;97982.66;1989243;81;20331;-79
2020/12/31 11:25:57;;;;;;;3.58;1.58;;;;;;;2.12;87.79;97983.50;1988903;81;20352;-80
2020/12/31 11:28:59;;;;;;;1.92;1.25;;;;;;;2.17;87.99;97969.06;1989467;81;20319;-78
2020/12/31 11:32:02;;;;;;;3.72;1.06;;;;;;;2.23;87.99;97978.47;1988649;78;20555;-78
2020/12/31 11:35:04;;;;;;;1.60;0.90;;;;;;;2.25;87.89;97972.50;1989036;81;20449;-79
2020/12/31 11:38:05;;;;;;;0.80;0.80;;;;;;;2.32;87.88;97960.59;1989438;81;20323;-79
2020/12/31 11:41:08;;;;;;;1.44;1.02;;;;;;;2.34;87.82;97962.34;1989499;81;20350;-79
2020/12/31 11:44:09;;;;;;;2.36;0.90;;;;;;;2.40;87.83;97951.25;1989829;81;20769;-78
2020/12/31 11:47:11;;;;;;;0.84;0.81;;;;;;;2.45;87.78;97948.69;1989124;79;23921;-78
2020/12/31 11:50:12;;;;;;;0.76;0.76;;;;;;;2.48;87.85;97947.00;1989828;81;20395;-79
2020/12/31 11:53:14;;;;;;;0.70;0.70;;;;;;;2.51;87.95;97944.44;1989583;81;20367;-78
2020/12/31 11:56:16;;;;;;;0.74;0.70;;;;;;;2.55;88.03;97943.63;1988199;81;20731;-78
2020/12/31 11:59:18;;;;;;;3.49;2.41;;;;;;;2.61;88.10;97941.09;1988818;81;21508;-78
2020/12/31 12:02:19;;;;;;;1.16;1.02;;;;;;;2.61;87.92;97928.28;1991466;79;27426;-77
2020/12/31 12:05:21;;;;;;;3.09;1.94;;;;;;;2.65;87.94;97926.56;1987728;81;20408;-78
2020/12/31 12:08:27;;;;;;;8.07;6.81;;;;;;;2.68;87.92;97917.19;1986510;81;20353;-78
2020/12/31 12:11:30;;;;;;;2.05;1.40;;;;;;;2.73;87.88;97924.91;1987676;81;20834;-79
2020/12/31 12:14:32;;;;;;;4.00;1.94;;;;;;;2.76;87.61;97921.50;1986552;81;20992;-78
2020/12/31 12:17:34;;;;;;;5.57;5.01;;;;;;;2.69;87.24;97924.03;1988915;81;27057;-79
2020/12/31 12:20:35;;;;;;;2.80;2.60;;;;;;;2.73;87.53;97935.16;1987620;81;20372;-77
2020/12/31 12:23:37;;;;;;;1.38;1.27;;;;;;;2.80;87.57;97924.06;1987114;81;20561;-77
2020/12/31 12:26:40;;;;;;;1.75;0.96;;;;;;;2.83;87.62;97926.63;1988831;81;20334;-78
2020/12/31 12:29:41;;;;;;;3.42;1.01;;;;;;;2.85;87.60;97931.75;1986207;81;20319;-79
2020/12/31 12:32:44;;;;;;;1.99;1.46;;;;;;;2.83;87.34;97936.03;1986562;78;20439;-78
2020/12/31 12:35:46;;;;;;;4.55;4.14;;;;;;;2.84;87.27;97930.03;1987152;81;21014;-77
2020/12/31 12:38:48;;;;;;;2.16;1.04;;;;;;;2.85;87.35;97921.50;1986651;81;20903;-77
2020/12/31 12:41:50;;;;;;;1.46;1.13;;;;;;;2.82;87.23;97919.78;1987416;81;20323;-77
2020/12/31 12:44:52;;;;;;;0.90;0.90;;;;;;;2.87;87.53;97917.22;1987141;81;21000;-77
2020/12/31 12:47:53;;;;;;;1.02;0.81;;;;;;;2.92;87.59;97910.44;1986438;79;20965;-77
2020/12/31 12:50:55;;;;;;;1.17;0.80;;;;;;;2.91;87.46;97922.38;1987235;81;20745;-77
2020/12/31 12:53:56;;;;;;;1.13;1.10;;;;;;;2.90;87.76;97907.00;1986828;81;20359;-77
2020/12/31 12:56:58;;;;;;;3.44;0.82;;;;;;;2.90;87.72;97905.31;1987194;81;20548;-76
2020/12/31 13:00:00;;;;;;;0.75;0.75;;;;;;;2.94;87.82;97899.31;1988987;81;20322;-78
2020/12/31 13:03:02;;;;;;;5.55;0.80;;;;;;;2.96;87.77;97892.47;1983213;79;20360;-78
2020/12/31 13:06:03;;;;;;;2.51;2.26;;;;;;;3.03;87.78;97898.47;1984339;81;20324;-78
2020/12/31 13:09:05;;;;;;;1.10;0.91;;;;;;;3.05;87.55;97894.19;1984100;81;20372;-79
2020/12/31 13:12:07;;;;;;;3.40;2.53;;;;;;;3.09;87.80;97898.50;1984533;81;20346;-77
2020/12/31 13:15:09;;;;;;;2.08;1.92;;;;;;;3.12;87.66;97895.91;1984347;81;20477;-78
2020/12/31 13:18:11;;;;;;;3.66;2.74;;;;;;;3.19;87.74;97889.06;1989049;78;20413;-77
2020/12/31 13:21:17;;;;;;;3.60;2.83;;;;;;;3.20;87.59;97886.50;1989682;81;20363;-78
2020/12/31 13:24:19;;;;;;;4.10;2.40;;;;;;;3.22;87.51;97887.38;1989806;81;20411;-78
2020/12/31 13:27:21;;;;;;;2.55;1.40;;;;;;;3.22;87.54;97889.06;1990022;81;20335;-77
2020/12/31 13:30:22;;;;;;;2.10;1.60;;;;;;;3.22;87.60;97887.38;1989085;79;20322;-78
2020/12/31 13:33:24;;;;;;;2.14;1.50;;;;;;;3.23;87.66;97878.84;1989633;81;21055;-77
2020/12/31 13:36:25;;;;;;;13.13;7.09;;;;;;;3.29;87.88;97888.25;1990184;81;20949;-77
2020/12/31 13:39:27;;;;;;;4.38;2.55;;;;;;;3.33;87.92;97895.06;1989847;81;20364;-77
2020/12/31 13:42:30;;;;;;;2.05;1.70;;;;;;;3.35;87.84;97895.94;1989981;81;20392;-77
2020/12/31 13:45:32;;;;;;;6.03;2.40;;;;;;;3.35;87.86;97898.50;1988106;78;21166;-77
2020/12/31 13:48:34;;;;;;;3.30;1.50;;;;;;;3.32;87.72;97895.94;1989537;81;20449;-77
2020/12/31 13:51:36;;;;;;;6.65;1.96;;;;;;;3.31;87.75;97895.06;1990463;81;20780;-78
2020/12/31 13:54:38;;;;;;;9.96;3.13;;;;;;;3.33;87.81;97892.50;1990045;81;20330;-79
2020/12/31 13:57:40;;;;;;;6.10;1.99;;;;;;;3.29;87.77;97901.06;1989987;81;20356;-76
2020/12/31 14:00:41;;;;;;;8.98;2.79;;;;;;;3.28;87.89;97900.22;1990488;79;20643;-76
2020/12/31 14:03:43;;;;;;;12.56;3.90;;;;;;;3.24;87.84;97892.53;1992336;81;20355;-77
2020/12/31 14:06:44;;;;;;;3.46;1.71;;;;;;;3.22;87.87;97905.31;1990040;81;20380;-77
2020/12/31 14:09:46;;;;;;;4.10;1.17;;;;;;;3.21;87.96;97895.91;1990112;81;20315;-78
2020/12/31 14:12:48;;;;;;;4.82;1.81;;;;;;;3.24;88.12;97895.94;1990690;81;20335;-78
2020/12/31 14:15:49;;;;;;;1.94;1.00;;;;;;;3.28;88.03;97902.78;1988947;81;21125;-76
2020/12/31 14:18:51;;;;;;;2.40;1.09;;;;;;;3.29;87.94;97896.78;1989426;81;20340;-76
2020/12/31 14:21:52;;;;;;;3.63;1.31;;;;;;;3.26;87.93;97901.06;1988932;81;20323;-76
2020/12/31 14:24:54;;;;;;;1.17;0.90;;;;;;;3.27;87.96;97898.50;1989390;81;20353;-77
2020/12/31 14:27:57;;;;;;;1.85;1.20;;;;;;;3.29;88.07;97894.22;1989530;81;20346;-76
2020/12/31 14:30:59;;;;;;;1.91;1.00;;;;;;;3.31;88.10;97889.09;1989351;79;23712;-76
2020/12/31 14:34:01;;;;;;;0.65;0.65;;;;;;;3.29;88.13;97888.25;1989044;81;21358;-76
2020/12/31 14:37:03;;;;;;;0.75;0.63;;;;;;;3.30;88.00;97889.94;1989097;81;20477;-77
2020/12/31 14:40:05;;;;;;;1.13;0.77;;;;;;;3.30;87.97;97897.66;1989394;81;20356;-77